To NAV CANADA Home Page Login to a new session Search on AWWS site Feedback and Comments Disclaimer Vers la page française équivalente Tips FAQ What's new on the site To the Forecasts and Observations / NOTAM section To "File a Flight Plan" website Publications and other links Update of the User's profile FIC Telephone Numbers My Weather Data Folder Route Weather Data Regional Weather Data Local Weather Data To the Forecasts and Observations / NOTAM section
Request Generated 05/24/2015 at 16:54:42 UTC . Weather information available at that time is displayed.

METAR/TAF

TRENTON/ON    

METAR CYTR 241600Z 20011KT 15SM BKN100 20/07 A3020 RMK AC4 SLP227=
METAR CYTR 241500Z 21009KT 15SM FEW100 BKN240 19/06 A3021 RMK AC2CI1 SLP231=
METAR CYTR 241400Z 20008KT 15SM FEW100 FEW240 17/06 A3021 RMK AC2CI0 SLP233=

TAF CYTR 241130Z 2412/2512 24005KT P6SM FEW240
FM241500 24012G22KT P6SM SCT080 BKN240
FM242200 24008KT P6SM SCT080 OVC240
FM250200 VRB03KT P6SM BKN080 OVC200
FM250900 VRB03KT P6SM -SHRA BKN050 OVC100
RMK NXT FCST BY 241800Z=
Your time UTC time
Weather data provided by Environment Canada and NAV CANADA